createdAt,value
2023-03-11T00:07:58.630Z,0.3
2023-03-11T00:18:00.417Z,0.2
2023-03-11T00:28:02.152Z,0.3
2023-03-11T00:38:04.173Z,0.1
2023-03-11T00:48:06.530Z,0.2
2023-03-11T00:51:01.041Z,0.2
2023-03-11T00:58:18.893Z,0.2
2023-03-11T01:08:21.487Z,0.2
2023-03-11T01:18:23.816Z,0.2
2023-03-11T01:28:25.989Z,0.2
2023-03-11T01:38:28.447Z,0.1
2023-03-11T01:58:32.336Z,0.2
2023-03-11T02:08:34.766Z,0.1
2023-03-11T02:18:37.056Z,0.2
2023-03-11T02:58:45.702Z,0
2023-03-11T03:08:47.931Z,0
2023-03-11T03:18:49.940Z,0
2023-03-11T03:28:51.688Z,0
2023-03-11T03:38:53.380Z,0
2023-03-11T03:48:55.202Z,0
2023-03-11T03:58:57.628Z,0.1
2023-03-11T04:08:59.403Z,0
2023-03-11T04:19:01.704Z,0
2023-03-11T04:29:03.674Z,0
2023-03-11T04:39:05.779Z,0
2023-03-11T04:49:08.251Z,0
2023-03-11T05:09:12.714Z,-0.1
2023-03-11T05:29:17.845Z,-0.1
2023-03-11T05:39:20.117Z,-0.2
2023-03-11T06:09:26.847Z,-0.2
2023-03-11T06:19:29.026Z,-0.3
2023-03-11T06:29:30.731Z,-0.4
2023-03-11T06:39:33.098Z,-0.5
2023-03-11T07:29:44.149Z,0
2023-03-11T07:39:46.784Z,0.2
2023-03-11T07:49:49.372Z,0.5
2023-03-11T08:09:53.876Z,0.7
2023-03-11T08:39:59.746Z,1.6
2023-03-11T08:50:01.852Z,1.6
2023-03-11T09:10:06.412Z,1.7
2023-03-11T09:20:08.396Z,2.1
2023-03-11T09:40:12.810Z,2.2
2023-03-11T09:50:14.769Z,2.4
2023-03-11T10:00:16.759Z,2.4
2023-03-11T10:10:18.618Z,2.9
2023-03-11T10:20:21.157Z,3
2023-03-11T10:30:23.983Z,3.1
2023-03-11T10:40:26.469Z,3.2
2023-03-11T10:50:28.703Z,3.1
2023-03-11T11:00:31.228Z,2.7
2023-03-11T11:10:33.044Z,3.2
2023-03-11T11:20:35.006Z,3.6
2023-03-11T11:30:37.665Z,3.5
2023-03-11T11:50:42.349Z,3.5
2023-03-11T12:00:44.274Z,3.6
2023-03-11T12:10:46.365Z,3.8
2023-03-11T12:30:50.515Z,3.9
2023-03-11T12:40:52.536Z,4.1
2023-03-11T13:00:56.941Z,4.8
2023-03-11T13:10:59.260Z,4.7
2023-03-11T13:21:01.149Z,4.8
2023-03-11T13:31:03.242Z,4.7
2023-03-11T13:41:05.171Z,5.2
2023-03-11T13:51:07.871Z,4.9
2023-03-11T14:01:10.294Z,5.2
2023-03-11T14:21:15.502Z,5
2023-03-11T14:31:17.441Z,5
2023-03-11T14:41:19.409Z,5.4
2023-03-11T14:51:21.043Z,4.8
2023-03-11T15:01:23.181Z,5.3
2023-03-11T15:11:24.973Z,5.2
2023-03-11T15:21:27.624Z,5.7
2023-03-11T15:31:29.347Z,5.2
2023-03-11T15:41:31.852Z,5.1
2023-03-11T15:51:34.184Z,5.1
2023-03-11T16:01:36.462Z,5.1
2023-03-11T16:11:38.321Z,5
2023-03-11T16:21:41.023Z,5
2023-03-11T16:31:43.237Z,4.7
2023-03-11T16:41:45.879Z,4.6
2023-03-11T16:51:47.580Z,4.6
2023-03-11T17:01:49.878Z,4.6
2023-03-11T17:11:51.968Z,4.5
2023-03-11T17:21:53.696Z,4.2
2023-03-11T17:31:55.866Z,3.9
2023-03-11T17:41:57.847Z,3.7
2023-03-11T17:51:59.681Z,3.6
2023-03-11T18:02:01.901Z,3.5
2023-03-11T18:12:04.170Z,3.4
2023-03-11T18:22:05.952Z,3.2
2023-03-11T18:32:07.848Z,3
2023-03-11T18:42:09.521Z,2.9
2023-03-11T18:52:12.112Z,2.7
2023-03-11T19:02:14.192Z,2.5
2023-03-11T19:12:16.452Z,2.2
2023-03-11T19:22:18.870Z,1.7
2023-03-11T19:32:20.866Z,1.2
2023-03-11T19:52:25.635Z,1
2023-03-11T20:02:27.803Z,1.2
2023-03-11T20:12:29.850Z,1.1
2023-03-11T20:22:31.913Z,1
2023-03-11T20:32:33.956Z,1
2023-03-11T21:12:42.737Z,0.9
2023-03-11T21:22:44.532Z,1
2023-03-11T21:32:47.007Z,0.7
2023-03-11T21:42:49.399Z,0.5
2023-03-11T21:52:51.675Z,0.3
2023-03-11T22:02:54.113Z,0.2
2023-03-11T22:12:56.478Z,0.4
2023-03-11T22:22:58.513Z,0.5
2023-03-11T22:33:00.814Z,0.6
2023-03-11T22:43:02.912Z,0.7
2023-03-11T22:53:05.551Z,0.2
2023-03-11T23:03:08.114Z,0.3
2023-03-11T23:13:10.359Z,0.3
2023-03-11T23:23:12.830Z,0.5
2023-03-11T23:43:17.233Z,0.7
2023-03-11T23:53:19.224Z,0.8
